createdAt,value
2023-02-02T00:01:31.923Z,1.98
2023-02-02T00:04:23.449Z,2.88
2023-02-02T00:07:11.669Z,2.35
2023-02-02T00:10:01.848Z,2.80
2023-02-02T00:12:50.064Z,2.30
2023-02-02T00:15:38.417Z,2.03
2023-02-02T00:18:26.652Z,3.30
2023-02-02T00:21:16.206Z,2.88
2023-02-02T00:24:04.695Z,2.35
2023-02-02T00:26:55.082Z,2.28
2023-02-02T00:29:43.282Z,1.60
2023-02-02T00:32:31.492Z,2.22
2023-02-02T00:35:19.840Z,2.22
2023-02-02T00:38:09.407Z,2.80
2023-02-02T00:40:57.667Z,2.40
2023-02-02T00:43:46.741Z,1.92
2023-02-02T00:46:34.027Z,2.55
2023-02-02T00:49:22.598Z,2.30
2023-02-02T00:52:11.251Z,2.75
2023-02-02T00:55:00.816Z,2.25
2023-02-02T00:57:49.287Z,2.03
2023-02-02T01:00:37.976Z,2.50
2023-02-02T01:03:26.281Z,2.22
2023-02-02T01:06:14.773Z,2.13
2023-02-02T01:09:03.692Z,1.98
2023-02-02T01:11:53.260Z,2.55
2023-02-02T01:14:41.501Z,2.75
2023-02-02T01:17:30.313Z,2.35
2023-02-02T01:20:21.218Z,1.90
2023-02-02T01:23:09.409Z,2.33
2023-02-02T01:25:58.827Z,3.05
2023-02-02T01:28:48.515Z,2.50
2023-02-02T01:31:36.768Z,2.65
2023-02-02T01:34:25.118Z,2.38
2023-02-02T01:37:13.363Z,1.95
2023-02-02T01:40:01.561Z,1.90
2023-02-02T01:42:49.777Z,2.40
2023-02-02T01:45:39.386Z,2.75
2023-02-02T01:48:33.877Z,2.58
2023-02-02T01:51:27.262Z,2.33
2023-02-02T01:54:26.920Z,3.17
2023-02-02T01:57:18.272Z,2.20
2023-02-02T02:00:10.126Z,1.65
2023-02-02T02:03:03.389Z,2.47
2023-02-02T02:05:55.759Z,3.22
2023-02-02T02:08:52.213Z,1.92
2023-02-02T02:11:40.433Z,2.25
2023-02-02T02:14:46.828Z,2.75
2023-02-02T02:17:46.853Z,3.20
2023-02-02T02:21:36.703Z,2.65
2023-02-02T02:25:28.940Z,1.95
2023-02-02T02:28:59.758Z,1.90
2023-02-02T02:32:05.838Z,2.08
2023-02-02T02:34:57.185Z,2.20
2023-02-02T02:37:49.413Z,2.47
2023-02-02T02:40:43.136Z,1.48
2023-02-02T02:43:35.855Z,2.95
2023-02-02T02:46:25.105Z,2.33
2023-02-02T02:49:15.188Z,2.63
2023-02-02T02:52:03.567Z,2.55
2023-02-02T02:54:54.660Z,2.28
2023-02-02T02:58:05.870Z,2.95
2023-02-02T03:01:04.599Z,2.30
2023-02-02T03:04:07.416Z,1.98
2023-02-02T03:07:05.592Z,2.55
2023-02-02T03:09:56.190Z,1.80
2023-02-02T03:12:46.243Z,2.10
2023-02-02T03:15:34.554Z,3.33
2023-02-02T03:18:25.485Z,2.17
2023-02-02T03:21:13.717Z,1.95
2023-02-02T03:24:03.657Z,2.33
2023-02-02T03:26:52.425Z,2.38
2023-02-02T03:29:40.673Z,2.72
2023-02-02T03:32:28.946Z,2.38
2023-02-02T03:35:17.284Z,2.10
2023-02-02T03:38:05.540Z,1.73
2023-02-02T03:40:55.098Z,1.92
2023-02-02T03:43:43.343Z,1.92
2023-02-02T03:46:31.603Z,1.90
2023-02-02T03:49:19.837Z,2.40
2023-02-02T03:52:08.105Z,2.20
2023-02-02T03:54:56.312Z,3.50
2023-02-02T03:57:45.880Z,2.53
2023-02-02T04:00:34.135Z,2.15
2023-02-02T04:03:22.491Z,2.80
2023-02-02T04:06:10.733Z,1.85
2023-02-02T04:08:58.979Z,2.50
2023-02-02T04:11:47.236Z,2.08
2023-02-02T04:14:36.912Z,1.98
2023-02-02T04:17:25.366Z,2.20
2023-02-02T04:20:13.763Z,2.15
2023-02-02T04:23:01.986Z,2.75
2023-02-02T04:25:50.851Z,2.95
2023-02-02T04:28:39.057Z,2.17
2023-02-02T04:31:29.930Z,2.70
2023-02-02T04:34:18.418Z,3.05
2023-02-02T04:37:06.638Z,2.55
2023-02-02T04:39:55.402Z,2.85
2023-02-02T04:42:45.349Z,2.15
2023-02-02T04:45:33.619Z,3.53
2023-02-02T04:48:23.267Z,2.30
2023-02-02T04:51:13.748Z,3.67
2023-02-02T04:54:01.997Z,2.47
2023-02-02T04:56:50.221Z,2.67
2023-02-02T04:59:39.891Z,2.63
2023-02-02T05:02:30.149Z,2.15
2023-02-02T05:05:20.425Z,2.50
2023-02-02T05:08:09.771Z,2.03
2023-02-02T05:10:58.079Z,2.58
2023-02-02T05:13:48.140Z,2.92
2023-02-02T05:16:36.508Z,2.15
2023-02-02T05:19:25.093Z,2.45
2023-02-02T05:22:14.696Z,2.20
2023-02-02T05:25:02.912Z,2.90
2023-02-02T05:27:51.147Z,2.25
2023-02-02T05:30:41.352Z,1.85
2023-02-02T05:33:29.540Z,3.72
2023-02-02T05:36:17.829Z,2.70
2023-02-02T05:39:07.359Z,2.35
2023-02-02T05:41:55.583Z,2.60
2023-02-02T05:44:43.796Z,2.95
2023-02-02T05:47:31.984Z,2.40
2023-02-02T05:50:20.348Z,2.53
2023-02-02T05:53:08.577Z,2.60
2023-02-02T05:55:58.637Z,2.72
2023-02-02T05:58:48.078Z,1.83
2023-02-02T06:01:36.320Z,2.75
2023-02-02T06:04:24.549Z,2.13
2023-02-02T06:07:13.197Z,3.97
2023-02-02T06:10:01.502Z,2.63
2023-02-02T06:12:51.155Z,2.30
2023-02-02T06:15:39.520Z,2.72
2023-02-02T06:18:27.985Z,2.10
2023-02-02T06:21:16.212Z,2.72
2023-02-02T06:24:04.985Z,2.10
2023-02-02T06:26:53.251Z,3.30
2023-02-02T06:29:42.840Z,4.38
2023-02-02T06:32:31.319Z,2.80
2023-02-02T06:35:19.657Z,2.42
2023-02-02T06:38:07.862Z,2.65
2023-02-02T06:40:56.184Z,2.50
2023-02-02T06:43:44.390Z,3.30
2023-02-02T06:46:34.048Z,2.45
2023-02-02T06:49:22.260Z,2.45
2023-02-02T06:52:10.514Z,4.68
2023-02-02T06:54:58.752Z,2.35
2023-02-02T06:57:47.482Z,3.33
2023-02-02T07:00:38.301Z,3.08
2023-02-02T07:03:27.903Z,2.35
2023-02-02T07:06:18.864Z,3.72
2023-02-02T07:09:07.176Z,3.28
2023-02-02T07:11:55.365Z,2.90
2023-02-02T07:14:43.610Z,3.08
2023-02-02T07:17:31.840Z,2.67
2023-02-02T07:20:21.586Z,3.13
2023-02-02T07:23:09.852Z,2.70
2023-02-02T07:26:05.148Z,2.88
2023-02-02T07:28:53.374Z,2.95
2023-02-02T07:31:42.264Z,2.25
2023-02-02T07:34:30.552Z,3.88
2023-02-02T07:37:20.113Z,2.47
2023-02-02T07:40:09.775Z,3.30
2023-02-02T07:43:00.613Z,2.47
2023-02-02T07:45:48.887Z,2.50
2023-02-02T07:48:37.827Z,2.67
2023-02-02T07:51:27.071Z,3.63
2023-02-02T07:54:16.660Z,2.85
2023-02-02T07:57:04.979Z,2.80
2023-02-02T07:59:54.643Z,2.90
2023-02-02T08:02:42.933Z,2.75
2023-02-02T08:05:32.135Z,2.72
2023-02-02T08:08:20.380Z,2.97
2023-02-02T08:11:12.699Z,2.75
2023-02-02T08:14:02.480Z,2.55
2023-02-02T08:16:50.746Z,3.30
2023-02-02T08:19:39.007Z,2.00
2023-02-02T08:22:27.337Z,3.83
2023-02-02T08:25:15.676Z,2.70
2023-02-02T08:28:06.124Z,4.47
2023-02-02T08:30:54.403Z,2.58
2023-02-02T08:33:42.801Z,2.97
2023-02-02T08:36:33.000Z,3.15
2023-02-02T08:39:21.250Z,3.40
2023-02-02T08:42:09.520Z,2.60
2023-02-02T08:45:59.546Z,2.10
2023-02-02T08:48:11.977Z,3.30
2023-02-02T08:51:01.905Z,2.70
2023-02-02T08:53:50.223Z,6.03
2023-02-02T08:56:38.470Z,3.47
2023-02-02T08:59:26.795Z,2.22
2023-02-02T09:02:16.848Z,2.53
2023-02-02T09:05:05.494Z,2.53
2023-02-02T09:07:53.741Z,2.42
2023-02-02T09:10:42.000Z,1.90
2023-02-02T09:13:30.210Z,2.75
2023-02-02T09:16:19.507Z,2.92
2023-02-02T09:19:09.485Z,3.10
2023-02-02T09:21:57.701Z,3.38
2023-02-02T09:24:45.913Z,2.95
2023-02-02T09:27:38.497Z,3.00
2023-02-02T09:30:26.753Z,2.58
2023-02-02T09:33:14.980Z,3.10
2023-02-02T09:36:10.001Z,3.63
2023-02-02T09:38:58.371Z,3.20
2023-02-02T09:42:07.146Z,3.80
2023-02-02T09:45:13.411Z,2.40
2023-02-02T09:48:14.632Z,2.60
2023-02-02T09:53:58.010Z,3.85
2023-02-02T09:56:54.593Z,3.90
2023-02-02T09:59:44.367Z,2.83
2023-02-02T10:02:39.328Z,2.65
2023-02-02T10:05:33.325Z,3.47
2023-02-02T10:08:35.044Z,2.83
2023-02-02T10:11:33.820Z,2.80
2023-02-02T10:14:28.599Z,2.95
2023-02-02T10:17:33.245Z,1.95
2023-02-02T10:20:33.704Z,3.67
2023-02-02T10:23:27.982Z,3.95
2023-02-02T10:26:20.473Z,1.85
2023-02-02T10:29:18.770Z,2.50
2023-02-02T10:32:22.464Z,2.38
2023-02-02T10:35:28.636Z,2.53
2023-02-02T10:38:24.754Z,1.85
2023-02-02T10:41:22.446Z,2.75
2023-02-02T10:44:31.458Z,1.48
2023-02-02T10:47:26.568Z,1.92
2023-02-02T10:50:19.990Z,2.25
2023-02-02T10:53:14.166Z,2.33
2023-02-02T10:56:07.012Z,4.30
2023-02-02T10:59:02.584Z,1.90
2023-02-02T11:01:52.215Z,3.97
2023-02-02T11:04:57.971Z,1.75
2023-02-02T11:07:46.369Z,1.40
2023-02-02T11:10:34.626Z,2.78
2023-02-02T11:13:31.488Z,2.33
2023-02-02T11:16:41.585Z,2.75
2023-02-02T11:19:34.467Z,2.92
2023-02-02T11:22:32.417Z,2.15
2023-02-02T11:25:28.533Z,2.10
2023-02-02T11:28:22.238Z,2.50
2023-02-02T11:31:12.871Z,3.58
2023-02-02T11:34:16.064Z,1.98
2023-02-02T11:37:15.946Z,2.83
2023-02-02T11:40:22.682Z,1.88
2023-02-02T11:43:19.794Z,2.30
2023-02-02T11:46:18.173Z,1.77
2023-02-02T11:49:08.594Z,1.92
2023-02-02T11:51:59.420Z,1.83
2023-02-02T11:54:51.377Z,2.10
2023-02-02T11:57:39.613Z,1.90
2023-02-02T12:00:29.841Z,1.35
2023-02-02T12:03:31.009Z,1.95
2023-02-02T12:09:14.179Z,2.25
2023-02-02T12:12:10.901Z,1.70
2023-02-02T12:15:05.488Z,1.92
2023-02-02T12:18:02.691Z,1.60
2023-02-02T12:20:59.680Z,1.60
2023-02-02T12:24:16.205Z,1.73
2023-02-02T12:27:18.480Z,2.13
2023-02-02T12:30:23.891Z,2.70
2023-02-02T12:33:23.631Z,2.17
2023-02-02T12:36:24.677Z,2.28
2023-02-02T12:39:30.170Z,2.22
2023-02-02T12:42:33.951Z,2.00
2023-02-02T12:45:39.320Z,2.20
2023-02-02T12:48:41.445Z,1.42
2023-02-02T12:51:47.755Z,1.63
2023-02-02T12:54:53.121Z,1.70
2023-02-02T12:58:07.543Z,2.38
2023-02-02T13:01:27.884Z,1.58
2023-02-02T13:04:40.619Z,1.85
2023-02-02T13:07:40.679Z,1.00
2023-02-02T13:10:33.086Z,1.83
2023-02-02T13:13:26.620Z,1.80
2023-02-02T13:16:15.381Z,1.17
2023-02-02T13:19:07.919Z,2.13
2023-02-02T13:21:59.117Z,2.22
2023-02-02T13:24:50.690Z,1.83
2023-02-02T13:27:41.244Z,1.95
2023-02-02T13:30:34.312Z,1.67
2023-02-02T13:33:26.092Z,2.38
2023-02-02T13:36:25.676Z,2.00
2023-02-02T13:39:18.750Z,1.38
2023-02-02T13:42:16.901Z,1.70
2023-02-02T13:45:16.640Z,1.40
2023-02-02T13:48:19.131Z,1.27
2023-02-02T13:51:39.563Z,1.55
2023-02-02T13:55:10.356Z,2.67
2023-02-02T13:58:28.150Z,2.10
2023-02-02T14:01:16.948Z,1.70
2023-02-02T14:04:06.924Z,2.28
2023-02-02T14:06:58.083Z,2.30
2023-02-02T14:09:49.965Z,2.00
2023-02-02T14:12:38.164Z,2.08
2023-02-02T14:15:40.230Z,1.90
2023-02-02T14:18:54.376Z,1.58
2023-02-02T14:22:05.520Z,2.35
2023-02-02T14:24:54.856Z,2.80
2023-02-02T14:27:58.231Z,1.60
2023-02-02T14:31:17.897Z,1.48
2023-02-02T14:34:29.298Z,1.15
2023-02-02T14:37:44.928Z,1.00
2023-02-02T14:40:45.929Z,1.55
2023-02-02T14:43:49.818Z,1.13
2023-02-02T14:46:40.052Z,1.05
2023-02-02T14:49:35.482Z,0.90
2023-02-02T14:52:24.448Z,1.52
2023-02-02T14:55:22.403Z,1.42
2023-02-02T14:58:10.917Z,1.40
2023-02-02T15:01:09.889Z,1.52
2023-02-02T15:04:19.470Z,1.80
2023-02-02T15:07:53.704Z,1.50
2023-02-02T15:11:30.034Z,1.63
2023-02-02T15:14:20.885Z,2.13
2023-02-02T15:17:20.795Z,1.55
2023-02-02T15:20:20.806Z,1.30
2023-02-02T15:23:24.259Z,1.85
2023-02-02T15:26:18.270Z,1.75
2023-02-02T15:29:14.724Z,1.70
2023-02-02T15:32:04.545Z,2.00
2023-02-02T15:34:55.451Z,1.63
2023-02-02T15:37:47.222Z,1.80
2023-02-02T15:40:38.499Z,2.10
2023-02-02T15:43:28.843Z,1.63
2023-02-02T15:46:24.454Z,1.63
2023-02-02T15:49:34.386Z,1.17
2023-02-02T15:52:27.160Z,1.88
2023-02-02T15:55:22.513Z,2.03
2023-02-02T15:58:42.149Z,1.60
2023-02-02T16:01:34.081Z,2.28
2023-02-02T16:04:29.037Z,2.30
2023-02-02T16:07:21.029Z,2.00
2023-02-02T16:10:19.413Z,1.63
2023-02-02T16:13:07.699Z,2.22
2023-02-02T16:15:59.174Z,2.00
2023-02-02T16:18:47.462Z,2.47
2023-02-02T16:21:38.724Z,2.00
2023-02-02T16:24:30.365Z,2.00
2023-02-02T16:27:22.273Z,3.88
2023-02-02T16:30:19.151Z,4.22
2023-02-02T16:33:35.610Z,6.38
2023-02-02T16:36:26.797Z,2.40
2023-02-02T16:39:24.339Z,2.58
2023-02-02T16:42:22.704Z,1.52
2023-02-02T16:45:34.888Z,1.80
2023-02-02T16:48:33.943Z,1.60
2023-02-02T16:51:28.744Z,1.95
2023-02-02T16:54:21.329Z,1.95
2023-02-02T16:57:18.932Z,1.77
2023-02-02T17:00:11.390Z,2.53
2023-02-02T17:03:02.390Z,2.20
2023-02-02T17:05:54.196Z,1.75
2023-02-02T17:08:42.750Z,2.75
2023-02-02T17:11:31.095Z,2.20
2023-02-02T17:14:21.330Z,1.95
2023-02-02T17:17:10.797Z,1.87
2023-02-02T17:19:59.029Z,1.35
2023-02-02T17:22:51.617Z,1.70
2023-02-02T17:25:43.741Z,1.50
2023-02-02T17:28:32.243Z,1.90
2023-02-02T17:31:20.553Z,2.28
2023-02-02T17:34:12.986Z,2.45
2023-02-02T17:37:01.210Z,2.97
2023-02-02T17:39:51.039Z,2.15
2023-02-02T17:42:39.293Z,2.10
2023-02-02T17:45:33.947Z,1.92
2023-02-02T17:48:22.463Z,1.70
2023-02-02T17:51:16.424Z,1.40
2023-02-02T17:54:06.382Z,1.83
2023-02-02T17:56:56.098Z,2.58
2023-02-02T17:59:44.336Z,1.83
2023-02-02T18:02:32.760Z,1.40
2023-02-02T18:05:21.406Z,2.05
2023-02-02T18:08:11.251Z,2.38
2023-02-02T18:10:59.776Z,1.80
2023-02-02T18:13:49.479Z,1.60
2023-02-02T18:16:37.725Z,2.25
2023-02-02T18:19:25.956Z,1.60
2023-02-02T18:22:14.355Z,2.45
2023-02-02T18:25:04.247Z,2.15
2023-02-02T18:27:54.842Z,2.53
2023-02-02T18:30:47.644Z,2.70
2023-02-02T18:33:37.075Z,3.03
2023-02-02T18:36:25.746Z,2.67
2023-02-02T18:39:14.124Z,2.50
2023-02-02T18:42:02.593Z,1.95
2023-02-02T18:44:50.791Z,3.67
2023-02-02T18:47:41.512Z,2.63
2023-02-02T18:50:29.865Z,2.97
2023-02-02T18:53:18.159Z,3.55
2023-02-02T18:56:07.575Z,4.95
2023-02-02T18:58:56.214Z,3.53
2023-02-02T19:01:44.483Z,3.15
2023-02-02T19:04:34.673Z,3.22
2023-02-02T19:07:40.239Z,4.27
2023-02-02T19:10:29.001Z,3.78
2023-02-02T19:13:19.379Z,3.03
2023-02-02T19:16:15.679Z,4.47
2023-02-02T19:19:09.807Z,3.33
2023-02-02T19:22:01.743Z,3.80
2023-02-02T19:24:50.816Z,3.20
2023-02-02T19:27:39.092Z,2.67
2023-02-02T19:30:27.683Z,3.03
2023-02-02T19:33:17.588Z,3.70
2023-02-02T19:36:07.046Z,3.92
2023-02-02T19:39:03.269Z,4.75
2023-02-02T19:41:53.704Z,4.10
2023-02-02T19:44:42.126Z,3.97
2023-02-02T19:47:33.549Z,5.28
2023-02-02T19:50:24.058Z,5.15
2023-02-02T19:53:19.556Z,4.80
2023-02-02T19:56:24.340Z,4.93
2023-02-02T19:59:17.600Z,5.05
2023-02-02T20:02:42.425Z,4.45
2023-02-02T20:05:35.157Z,6.05
2023-02-02T20:08:26.402Z,5.45
2023-02-02T20:11:31.911Z,4.85
2023-02-02T20:14:30.098Z,5.20
2023-02-02T20:17:27.171Z,5.13
2023-02-02T20:20:26.080Z,5.35
2023-02-02T20:23:41.719Z,5.20
2023-02-02T20:26:35.870Z,5.13
2023-02-02T20:29:27.286Z,5.60
2023-02-02T20:32:21.770Z,4.22
2023-02-02T20:35:23.938Z,4.68
2023-02-02T20:38:21.556Z,4.97
2023-02-02T20:41:09.815Z,4.82
2023-02-02T20:43:59.393Z,4.78
2023-02-02T20:46:47.906Z,4.40
2023-02-02T20:49:37.055Z,4.75
2023-02-02T20:52:26.354Z,4.63
2023-02-02T20:55:14.703Z,4.50
2023-02-02T20:58:03.433Z,3.90
2023-02-02T21:00:53.047Z,3.50
2023-02-02T21:03:41.545Z,3.47
2023-02-02T21:06:29.750Z,3.72
2023-02-02T21:09:19.232Z,3.30
2023-02-02T21:12:07.508Z,3.15
2023-02-02T21:14:55.789Z,3.03
2023-02-02T21:17:45.329Z,3.40
2023-02-02T21:20:33.529Z,3.15
2023-02-02T21:23:21.814Z,3.28
2023-02-02T21:26:10.403Z,3.92
2023-02-02T21:28:59.306Z,3.95
2023-02-02T21:31:47.674Z,3.50
2023-02-02T21:34:37.999Z,2.85
2023-02-02T21:37:26.438Z,3.30
2023-02-02T21:40:22.526Z,2.80
2023-02-02T21:43:16.476Z,3.55
2023-02-02T21:46:04.917Z,4.50
2023-02-02T21:48:53.163Z,3.53
2023-02-02T21:51:43.588Z,4.00
2023-02-02T21:54:37.907Z,3.17
2023-02-02T21:57:36.043Z,3.00
2023-02-02T22:00:28.857Z,2.75
2023-02-02T22:03:38.508Z,2.83
2023-02-02T22:06:29.323Z,3.03
2023-02-02T22:09:23.065Z,2.72
2023-02-02T22:12:18.123Z,3.50
2023-02-02T22:15:19.392Z,3.17
2023-02-02T22:21:01.457Z,3.58
2023-02-02T22:23:49.672Z,2.60
2023-02-02T22:26:39.230Z,2.60
2023-02-02T22:29:30.459Z,2.88
2023-02-02T22:35:07.164Z,2.70
2023-02-02T22:37:55.408Z,2.10
2023-02-02T22:40:43.620Z,2.13
2023-02-02T22:43:33.203Z,1.73
2023-02-02T22:46:21.477Z,1.40
2023-02-02T22:49:09.758Z,1.60
2023-02-02T22:51:58.000Z,1.17
2023-02-02T22:54:46.751Z,1.23
2023-02-02T22:57:34.976Z,1.30
2023-02-02T23:00:27.161Z,1.27
2023-02-02T23:03:15.562Z,1.80
2023-02-02T23:06:03.829Z,1.95
2023-02-02T23:08:51.988Z,1.20
2023-02-02T23:11:40.218Z,1.38
2023-02-02T23:14:28.415Z,1.40
2023-02-02T23:17:18.033Z,1.15
2023-02-02T23:20:08.914Z,1.02
2023-02-02T23:22:57.211Z,1.52
2023-02-02T23:25:45.459Z,1.73
2023-02-02T23:28:33.622Z,1.25
2023-02-02T23:31:21.916Z,1.55
2023-02-02T23:34:11.474Z,1.48
2023-02-02T23:36:59.759Z,1.33
2023-02-02T23:39:47.991Z,1.95
2023-02-02T23:42:36.350Z,1.70
2023-02-02T23:45:24.637Z,1.50
2023-02-02T23:48:13.447Z,1.65
2023-02-02T23:51:03.184Z,1.17
2023-02-02T23:53:51.475Z,1.10
2023-02-02T23:56:40.182Z,1.02
2023-02-02T23:59:28.478Z,0.88
